createdAt,value
2023-05-13T00:01:50.560Z,102066.03
2023-05-13T00:04:19.731Z,102070.25
2023-05-13T00:06:46.869Z,102073.69
2023-05-13T00:09:16.003Z,102050.63
2023-05-13T00:11:42.855Z,102076.03
2023-05-13T00:14:11.070Z,102081.81
2023-05-13T00:16:37.827Z,102069.72
2023-05-13T00:19:04.793Z,102071.44
2023-05-13T00:21:32.456Z,102044.00
2023-05-13T00:23:59.272Z,102066.53
2023-05-13T00:26:26.499Z,102054.84
2023-05-13T00:28:53.282Z,102070.16
2023-05-13T00:31:20.199Z,102068.88
2023-05-13T00:33:49.700Z,102052.50
2023-05-13T00:36:16.647Z,102061.78
2023-05-13T00:38:44.517Z,102074.34
2023-05-13T00:41:12.527Z,102068.28
2023-05-13T00:43:41.593Z,102075.06
2023-05-13T00:46:11.223Z,102079.13
2023-05-13T00:48:38.905Z,102063.50
2023-05-13T00:51:07.884Z,102067.56
2023-05-13T00:53:35.304Z,102076.53
2023-05-13T00:56:05.104Z,102068.88
2023-05-13T00:58:31.952Z,102078.97
2023-05-13T01:01:12.313Z,102087.22
2023-05-13T01:03:46.468Z,102077.53
2023-05-13T01:06:47.233Z,102064.09
2023-05-13T01:09:47.430Z,102071.88
2023-05-13T01:12:22.118Z,102054.00
2023-05-13T01:15:07.471Z,102045.16
2023-05-13T01:17:43.134Z,102068.00
2023-05-13T01:20:11.582Z,102066.41
2023-05-13T01:22:38.523Z,102054.69
2023-05-13T01:25:05.624Z,102067.84
2023-05-13T01:27:32.502Z,102071.72
2023-05-13T01:29:59.399Z,102051.66
2023-05-13T01:32:26.604Z,102060.31
2023-05-13T01:34:57.614Z,102061.88
2023-05-13T01:37:24.778Z,102060.59
2023-05-13T01:39:52.122Z,102063.75
2023-05-13T01:42:21.330Z,102063.75
2023-05-13T01:44:51.508Z,102080.06
2023-05-13T01:47:18.371Z,102077.59
2023-05-13T01:49:45.297Z,102061.41
2023-05-13T01:52:12.064Z,101986.50
2023-05-13T01:54:39.142Z,102074.97
2023-05-13T01:57:06.059Z,102064.81
2023-05-13T01:59:35.456Z,102064.69
2023-05-13T02:02:02.449Z,102079.16
2023-05-13T02:04:34.504Z,102062.81
2023-05-13T02:07:04.113Z,102062.66
2023-05-13T02:09:31.227Z,102068.56
2023-05-13T02:11:58.510Z,102082.72
2023-05-13T02:14:25.553Z,102080.97
2023-05-13T02:16:55.024Z,102077.50
2023-05-13T02:19:26.753Z,102078.78
2023-05-13T02:21:55.751Z,102072.69
2023-05-13T02:24:23.236Z,102049.53
2023-05-13T02:26:50.177Z,102070.34
2023-05-13T02:29:17.309Z,102079.72
2023-05-13T02:31:44.314Z,102075.78
2023-05-13T02:34:11.251Z,102075.66
2023-05-13T02:36:38.573Z,102066.38
2023-05-13T02:39:05.563Z,102061.59
2023-05-13T02:41:32.357Z,102073.75
2023-05-13T02:43:59.456Z,102072.13
2023-05-13T02:46:28.242Z,102066.16
2023-05-13T02:48:57.605Z,102069.34
2023-05-13T02:51:24.425Z,102078.44
2023-05-13T02:53:51.798Z,102065.56
2023-05-13T02:56:21.032Z,102075.63
2023-05-13T02:58:50.639Z,102079.41
2023-05-13T03:01:22.242Z,102076.91
2023-05-13T03:03:49.220Z,102075.44
2023-05-13T03:06:16.225Z,102062.97
2023-05-13T03:08:43.122Z,102076.84
2023-05-13T03:11:11.967Z,102047.75
2023-05-13T03:13:41.176Z,102083.00
2023-05-13T03:16:08.358Z,102044.81
2023-05-13T03:18:36.089Z,102057.97
2023-05-13T03:21:03.360Z,102064.69
2023-05-13T03:23:30.500Z,102081.31
2023-05-13T03:25:57.430Z,102087.03
2023-05-13T03:28:24.178Z,102084.88
2023-05-13T03:30:53.670Z,102070.97
2023-05-13T03:33:20.453Z,102087.09
2023-05-13T03:35:49.317Z,102067.28
2023-05-13T03:38:16.399Z,102053.38
2023-05-13T03:40:43.285Z,102053.38
2023-05-13T03:43:12.700Z,102091.13
2023-05-13T03:45:39.644Z,102085.44
2023-05-13T03:48:06.766Z,102066.34
2023-05-13T03:50:33.607Z,102082.22
2023-05-13T03:53:04.914Z,102103.84
2023-05-13T03:55:31.750Z,102091.44
2023-05-13T03:57:58.761Z,102101.00
2023-05-13T04:00:25.620Z,102086.22
2023-05-13T04:02:52.842Z,102075.19
2023-05-13T04:05:20.503Z,102083.47
2023-05-13T04:07:47.302Z,102095.16
2023-05-13T04:10:15.583Z,102087.50
2023-05-13T04:12:42.831Z,102099.38
2023-05-13T04:15:10.414Z,102093.91
2023-05-13T04:17:39.375Z,102092.03
2023-05-13T04:20:06.982Z,102106.59
2023-05-13T04:22:35.695Z,102099.88
2023-05-13T04:25:02.945Z,102099.88
2023-05-13T04:27:32.488Z,102088.47
2023-05-13T04:29:59.492Z,102076.81
2023-05-13T04:32:26.421Z,102108.31
2023-05-13T04:34:54.052Z,102109.66
2023-05-13T04:37:28.049Z,102118.75
2023-05-13T04:39:57.205Z,102114.88
2023-05-13T04:42:24.378Z,102113.13
2023-05-13T04:44:54.527Z,102113.13
2023-05-13T04:47:21.432Z,102100.34
2023-05-13T04:49:48.227Z,102106.69
2023-05-13T04:52:20.268Z,102034.84
2023-05-13T04:54:49.337Z,102091.28
2023-05-13T04:57:20.663Z,102117.84
2023-05-13T04:59:47.410Z,102109.47
2023-05-13T05:02:14.383Z,102120.16
2023-05-13T05:04:41.358Z,102103.91
2023-05-13T05:07:08.092Z,102118.34
2023-05-13T05:09:34.796Z,102099.53
2023-05-13T05:12:04.404Z,102104.00
2023-05-13T05:14:31.988Z,102119.06
2023-05-13T05:16:58.969Z,102106.94
2023-05-13T05:19:25.873Z,102105.03
2023-05-13T05:21:52.910Z,102091.44
2023-05-13T05:24:19.741Z,102113.88
2023-05-13T05:26:46.595Z,102125.88
2023-05-13T05:29:13.374Z,102123.16
2023-05-13T05:31:42.770Z,102118.03
2023-05-13T05:34:11.729Z,102123.84
2023-05-13T05:36:38.623Z,102119.72
2023-05-13T05:39:05.354Z,102130.66
2023-05-13T05:41:32.917Z,102129.03
2023-05-13T05:44:03.713Z,102137.50
2023-05-13T05:46:31.663Z,102134.50
2023-05-13T05:49:02.594Z,102134.19
2023-05-13T05:51:29.499Z,102136.56
2023-05-13T05:53:56.647Z,102123.53
2023-05-13T05:56:25.886Z,102118.78
2023-05-13T05:58:55.013Z,102121.81
2023-05-13T06:01:24.230Z,102122.91
2023-05-13T06:03:53.168Z,102132.97
2023-05-13T06:06:21.462Z,102127.19
2023-05-13T06:08:48.744Z,102123.94
2023-05-13T06:11:18.147Z,102135.25
2023-05-13T06:13:47.038Z,102139.25
2023-05-13T06:16:14.031Z,102138.16
2023-05-13T06:18:40.845Z,102020.63
2023-05-13T06:21:07.514Z,102127.94
2023-05-13T06:23:39.630Z,102142.47
2023-05-13T06:26:09.848Z,102127.84
2023-05-13T06:28:39.543Z,102144.56
2023-05-13T06:31:08.810Z,102138.88
2023-05-13T06:33:35.812Z,102149.94
2023-05-13T06:36:02.611Z,102150.53
2023-05-13T06:38:29.285Z,102142.16
2023-05-13T06:40:58.222Z,102160.72
2023-05-13T06:43:24.991Z,102149.81
2023-05-13T06:45:51.970Z,102150.06
2023-05-13T06:48:18.822Z,102135.94
2023-05-13T06:50:45.989Z,102152.34
2023-05-13T06:53:15.256Z,102154.06
2023-05-13T06:55:42.616Z,102139.06
2023-05-13T06:58:09.665Z,102146.50
2023-05-13T07:00:38.780Z,102155.94
2023-05-13T07:03:06.780Z,102150.59
2023-05-13T07:05:37.726Z,102149.63
2023-05-13T07:08:08.708Z,102148.06
2023-05-13T07:10:37.845Z,102151.34
2023-05-13T07:13:07.376Z,102155.59
2023-05-13T07:15:34.136Z,102158.00
2023-05-13T07:18:00.783Z,102153.72
2023-05-13T07:20:27.663Z,102156.38
2023-05-13T07:22:56.611Z,102143.44
2023-05-13T07:25:23.957Z,102152.03
2023-05-13T07:27:50.860Z,102148.63
2023-05-13T07:30:20.462Z,102139.03
2023-05-13T07:32:48.788Z,102139.59
2023-05-13T07:35:19.209Z,102131.50
2023-05-13T07:37:51.626Z,102145.06
2023-05-13T07:40:18.722Z,102138.63
2023-05-13T07:42:45.630Z,102148.06
2023-05-13T07:45:12.427Z,102137.13
2023-05-13T07:47:39.335Z,102146.63
2023-05-13T07:50:06.768Z,102145.63
2023-05-13T07:52:41.282Z,102135.66
2023-05-13T07:55:11.012Z,102138.31
2023-05-13T07:57:37.954Z,102146.88
2023-05-13T08:00:06.617Z,102138.00
2023-05-13T08:02:35.735Z,102135.28
2023-05-13T08:05:02.469Z,102145.78
2023-05-13T08:07:29.590Z,102146.13
2023-05-13T08:09:57.455Z,102135.41
2023-05-13T08:12:26.340Z,102140.91
2023-05-13T08:14:56.475Z,102146.19
2023-05-13T08:17:23.525Z,102138.72
2023-05-13T08:19:50.490Z,102135.63
2023-05-13T08:22:17.353Z,102155.84
2023-05-13T08:24:44.193Z,102150.84
2023-05-13T08:27:14.277Z,102139.56
2023-05-13T08:29:43.341Z,102130.38
2023-05-13T08:32:12.515Z,102145.63
2023-05-13T08:34:40.228Z,102145.50
2023-05-13T08:37:07.045Z,102135.81
2023-05-13T08:39:34.559Z,102118.38
2023-05-13T08:42:04.171Z,102123.38
2023-05-13T08:44:39.674Z,102107.25
2023-05-13T08:47:22.686Z,102137.44
2023-05-13T08:49:52.204Z,102149.69
2023-05-13T08:52:23.138Z,102140.47
2023-05-13T08:54:50.203Z,102106.97
2023-05-13T08:57:17.398Z,102128.81
2023-05-13T08:59:44.122Z,102141.81
2023-05-13T09:02:11.168Z,102123.31
2023-05-13T09:04:42.397Z,102129.38
2023-05-13T09:07:09.456Z,102140.91
2023-05-13T09:09:36.771Z,102146.13
2023-05-13T09:12:06.605Z,102143.38
2023-05-13T09:14:33.237Z,102143.38
2023-05-13T09:17:01.978Z,102137.34
2023-05-13T09:19:28.678Z,102135.63
2023-05-13T09:21:57.742Z,102137.78
2023-05-13T09:24:24.512Z,102147.84
2023-05-13T09:26:51.829Z,102134.75
2023-05-13T09:29:18.747Z,102136.19
2023-05-13T09:31:48.952Z,102135.75
2023-05-13T09:34:25.177Z,102132.19
2023-05-13T09:37:08.631Z,102123.25
2023-05-13T09:39:41.546Z,102119.72
2023-05-13T09:42:19.292Z,102132.16
2023-05-13T09:44:49.003Z,102130.34
2023-05-13T09:47:16.947Z,102093.22
2023-05-13T09:49:58.026Z,102131.84
2023-05-13T09:52:24.734Z,102127.13
2023-05-13T09:54:51.324Z,102135.53
2023-05-13T09:57:17.922Z,102130.31
2023-05-13T09:59:44.496Z,102131.38
2023-05-13T10:02:15.612Z,102117.22
2023-05-13T10:04:42.882Z,102112.41
2023-05-13T10:07:11.607Z,102124.19
2023-05-13T10:09:39.959Z,102121.03
2023-05-13T10:12:08.915Z,102114.78
2023-05-13T10:14:42.032Z,102115.59
2023-05-13T10:17:09.501Z,102111.09
2023-05-13T10:19:37.161Z,102097.94
2023-05-13T10:22:04.095Z,102098.63
2023-05-13T10:24:31.421Z,102107.72
2023-05-13T10:26:58.814Z,102116.50
2023-05-13T10:29:26.734Z,102104.47
2023-05-13T10:31:56.924Z,102088.78
2023-05-13T10:34:25.309Z,102090.84
2023-05-13T10:37:21.504Z,102093.63
2023-05-13T10:40:17.273Z,102098.41
2023-05-13T10:42:54.030Z,102086.22
2023-05-13T10:45:25.869Z,102100.44
2023-05-13T10:47:54.647Z,102098.06
2023-05-13T10:50:31.672Z,102099.31
2023-05-13T10:52:59.123Z,102095.09
2023-05-13T10:55:27.076Z,102086.91
2023-05-13T10:58:16.514Z,102085.59
2023-05-13T11:00:46.910Z,102089.81
2023-05-13T11:03:14.736Z,102092.53
2023-05-13T11:05:45.345Z,102092.16
2023-05-13T11:08:12.285Z,102086.59
2023-05-13T11:10:41.974Z,102089.81
2023-05-13T11:13:21.880Z,102078.03
2023-05-13T11:15:55.632Z,102066.47
2023-05-13T11:18:33.754Z,102055.09
2023-05-13T11:21:05.649Z,102069.06
2023-05-13T11:23:55.926Z,102072.28
2023-05-13T11:26:23.132Z,102067.56
2023-05-13T11:29:00.705Z,102063.09
2023-05-13T11:31:46.981Z,102061.13
2023-05-13T11:34:18.246Z,102028.53
2023-05-13T11:36:47.515Z,102058.31
2023-05-13T11:39:19.021Z,102056.78
2023-05-13T11:41:50.483Z,102038.28
2023-05-13T11:44:21.961Z,102066.34
2023-05-13T11:46:57.726Z,102066.16
2023-05-13T11:49:30.358Z,102048.84
2023-05-13T11:51:59.647Z,102052.13
2023-05-13T11:54:26.986Z,102042.28
2023-05-13T11:56:53.630Z,102051.91
2023-05-13T11:59:20.525Z,102053.63
2023-05-13T12:01:59.228Z,102047.41
2023-05-13T12:04:30.216Z,102048.03
2023-05-13T12:06:57.623Z,102035.31
2023-05-13T12:09:25.071Z,102041.72
2023-05-13T12:11:52.844Z,102046.91
2023-05-13T12:14:21.150Z,102018.34
2023-05-13T12:16:48.243Z,102049.88
2023-05-13T12:19:19.566Z,102038.91
2023-05-13T12:21:46.182Z,102044.09
2023-05-13T12:24:21.258Z,102034.50
2023-05-13T12:26:48.148Z,102042.47
2023-05-13T12:29:15.246Z,102046.34
2023-05-13T12:31:43.923Z,102028.94
2023-05-13T12:34:10.889Z,102037.31
2023-05-13T12:36:40.022Z,102044.00
2023-05-13T12:39:11.644Z,102042.69
2023-05-13T12:41:40.162Z,102040.34
2023-05-13T12:44:13.681Z,102030.25
2023-05-13T12:46:53.390Z,102027.00
2023-05-13T12:49:21.342Z,102034.72
2023-05-13T12:51:48.506Z,102019.00
2023-05-13T12:54:15.044Z,102022.03
2023-05-13T12:56:41.745Z,102022.09
2023-05-13T12:59:09.035Z,102029.59
2023-05-13T13:01:36.956Z,102036.00
2023-05-13T13:04:04.266Z,102031.97
2023-05-13T13:06:34.061Z,102017.38
2023-05-13T13:09:00.701Z,102024.66
2023-05-13T13:11:30.299Z,102015.88
2023-05-13T13:13:59.278Z,102009.19
2023-05-13T13:16:26.060Z,102024.41
2023-05-13T13:19:02.606Z,102030.81
2023-05-13T13:21:32.175Z,102015.13
2023-05-13T13:23:58.737Z,102024.19
2023-05-13T13:26:25.559Z,102018.66
2023-05-13T13:28:52.417Z,102018.03
2023-05-13T13:31:19.184Z,102025.28
2023-05-13T13:33:45.814Z,102014.53
2023-05-13T13:36:12.389Z,102014.75
2023-05-13T13:38:39.016Z,102010.50
2023-05-13T13:41:06.315Z,102029.78
2023-05-13T13:43:32.845Z,102015.44
2023-05-13T13:45:59.554Z,102025.47
2023-05-13T13:48:26.686Z,102012.38
2023-05-13T13:50:55.668Z,102021.13
2023-05-13T13:53:22.333Z,102009.34
2023-05-13T13:55:51.220Z,102011.28
2023-05-13T13:58:17.860Z,102002.25
2023-05-13T14:00:44.868Z,102005.50
2023-05-13T14:03:11.662Z,101994.53
2023-05-13T14:05:40.981Z,101989.88
2023-05-13T14:08:10.147Z,101994.13
2023-05-13T14:10:36.995Z,101994.53
2023-05-13T14:13:03.783Z,101991.56
2023-05-13T14:15:30.943Z,101989.84
2023-05-13T14:17:57.812Z,101982.56
2023-05-13T14:20:29.022Z,101972.69
2023-05-13T14:22:56.316Z,101990.06
2023-05-13T14:25:23.579Z,101974.78
2023-05-13T14:27:53.270Z,101978.66
2023-05-13T14:30:20.245Z,101967.25
2023-05-13T14:32:47.381Z,101973.28
2023-05-13T14:35:14.669Z,101969.06
2023-05-13T14:37:41.509Z,101975.75
2023-05-13T14:40:09.588Z,101986.03
2023-05-13T14:42:36.239Z,101976.38
2023-05-13T14:45:09.269Z,101981.53
2023-05-13T14:47:36.842Z,101962.25
2023-05-13T14:50:03.778Z,101960.06
2023-05-13T14:52:30.337Z,101971.66
2023-05-13T14:54:56.906Z,101974.03
2023-05-13T14:57:23.510Z,101956.25
2023-05-13T14:59:50.187Z,101944.00
2023-05-13T15:02:17.396Z,101945.50
2023-05-13T15:04:44.304Z,101959.84
2023-05-13T15:07:10.989Z,101960.94
2023-05-13T15:09:40.029Z,101951.06
2023-05-13T15:12:13.341Z,101955.59
2023-05-13T15:14:39.952Z,101949.34
2023-05-13T15:17:10.815Z,101953.44
2023-05-13T15:19:42.412Z,101934.97
2023-05-13T15:22:12.004Z,101942.28
2023-05-13T15:24:39.154Z,101951.28
2023-05-13T15:27:06.775Z,101941.41
2023-05-13T15:29:33.344Z,101941.41
2023-05-13T15:31:59.916Z,101924.47
2023-05-13T15:34:26.654Z,101929.41
2023-05-13T15:37:03.775Z,101935.19
2023-05-13T15:39:30.393Z,101931.56
2023-05-13T15:41:57.198Z,101921.88
2023-05-13T15:44:23.944Z,101940.56
2023-05-13T15:46:51.364Z,101932.41
2023-05-13T15:49:20.247Z,101927.69
2023-05-13T15:51:49.301Z,101925.34
2023-05-13T15:54:15.895Z,101930.91
2023-05-13T15:56:44.714Z,101894.03
2023-05-13T15:59:11.368Z,101925.13
2023-05-13T16:01:40.335Z,101920.41
2023-05-13T16:04:07.268Z,101926.16
2023-05-13T16:06:34.231Z,101900.47
2023-05-13T16:09:04.322Z,101913.09
2023-05-13T16:11:31.058Z,101921.66
2023-05-13T16:13:57.821Z,101921.25
2023-05-13T16:16:24.572Z,101916.09
2023-05-13T16:18:51.335Z,101930.25
2023-05-13T16:21:20.496Z,101916.75
2023-05-13T16:23:47.136Z,101923.00
2023-05-13T16:26:13.761Z,101918.69
2023-05-13T16:28:40.304Z,101916.75
2023-05-13T16:31:09.296Z,101917.84
2023-05-13T16:33:36.383Z,101915.25
2023-05-13T16:36:03.237Z,101920.84
2023-05-13T16:38:30.553Z,101921.91
2023-05-13T16:40:59.559Z,101922.56
2023-05-13T16:43:28.405Z,101905.63
2023-05-13T16:45:54.956Z,101915.72
2023-05-13T16:48:35.998Z,101916.56
2023-05-13T16:51:05.703Z,101909.25
2023-05-13T16:53:33.769Z,101911.59
2023-05-13T16:56:00.929Z,101908.41
2023-05-13T16:58:27.550Z,101918.50
2023-05-13T17:00:54.312Z,101922.56
2023-05-13T17:03:24.173Z,101910.16
2023-05-13T17:05:50.864Z,101915.91
2023-05-13T17:08:19.201Z,101921.28
2023-05-13T17:10:45.910Z,101914.84
2023-05-13T17:15:40.200Z,101906.47
2023-05-13T17:18:07.033Z,101912.06
2023-05-13T17:20:33.859Z,101913.97
2023-05-13T17:23:00.697Z,101904.94
2023-05-13T17:25:27.328Z,101914.38
2023-05-13T17:27:58.519Z,101906.06
2023-05-13T17:30:27.640Z,101919.50
2023-05-13T17:32:54.402Z,101913.72
2023-05-13T17:35:21.120Z,101908.34
2023-05-13T17:37:50.194Z,101910.44
2023-05-13T17:40:19.093Z,101917.50
2023-05-13T17:42:45.752Z,101914.72
2023-05-13T17:45:13.110Z,101910.41
2023-05-13T17:47:39.937Z,101918.53
2023-05-13T17:50:07.359Z,101907.16
2023-05-13T17:52:36.541Z,101912.25
2023-05-13T17:55:03.237Z,101921.25
2023-05-13T17:57:31.946Z,101920.75
2023-05-13T18:00:04.769Z,101921.59
2023-05-13T18:02:31.613Z,101925.41
2023-05-13T18:04:58.509Z,101934.56
2023-05-13T18:07:25.153Z,101928.34
2023-05-13T18:09:54.755Z,101919.66
2023-05-13T18:12:21.392Z,101922.34
2023-05-13T18:14:48.014Z,101929.75
2023-05-13T18:19:44.711Z,101930.47
2023-05-13T18:22:13.066Z,101927.91
2023-05-13T18:24:39.856Z,101919.53
2023-05-13T18:27:07.659Z,101929.22
2023-05-13T18:29:35.194Z,101932.44
2023-05-13T18:32:02.129Z,101928.28
2023-05-13T18:34:31.713Z,101915.03
2023-05-13T18:36:58.277Z,101939.66
2023-05-13T18:39:24.862Z,101946.56
2023-05-13T18:41:51.631Z,101939.16
2023-05-13T18:44:18.772Z,101946.25
2023-05-13T18:46:45.765Z,101934.06
2023-05-13T18:49:14.854Z,101936.28
2023-05-13T18:51:41.788Z,101949.00
2023-05-13T18:54:11.366Z,101954.81
2023-05-13T18:56:38.225Z,101956.66
2023-05-13T18:59:05.226Z,101964.00
2023-05-13T19:01:31.811Z,101960.47
2023-05-13T19:03:58.622Z,101951.75
2023-05-13T19:06:25.584Z,101949.81
2023-05-13T19:08:54.385Z,101961.75
2023-05-13T19:11:21.691Z,101948.72
2023-05-13T19:13:48.337Z,101961.91
2023-05-13T19:16:15.837Z,101957.28
2023-05-13T19:18:44.912Z,101971.03
2023-05-13T19:21:11.520Z,101970.91
2023-05-13T19:23:38.434Z,101971.66
2023-05-13T19:26:05.043Z,101971.72
2023-05-13T19:28:32.229Z,101981.63
2023-05-13T19:31:02.016Z,101970.06
2023-05-13T19:33:28.611Z,101973.38
2023-05-13T19:35:58.140Z,101973.63
2023-05-13T19:38:26.948Z,101975.91
2023-05-13T19:40:53.846Z,101974.44
2023-05-13T19:43:20.696Z,101968.91
2023-05-13T19:45:47.534Z,101982.56
2023-05-13T19:48:14.340Z,101975.38
2023-05-13T19:50:41.712Z,101979.53
2023-05-13T19:53:08.624Z,101992.31
2023-05-13T19:55:35.722Z,101999.25
2023-05-13T19:58:02.620Z,101999.59
2023-05-13T20:00:29.833Z,101996.00
2023-05-13T20:02:56.894Z,102006.03
2023-05-13T20:05:23.702Z,101988.78
2023-05-13T20:07:50.628Z,102002.59
2023-05-13T20:10:22.634Z,102003.88
2023-05-13T20:12:52.195Z,102002.63
2023-05-13T20:15:19.118Z,102001.78
2023-05-13T20:17:45.947Z,101996.97
2023-05-13T20:20:13.801Z,102013.88
2023-05-13T20:22:42.991Z,102024.09
2023-05-13T20:25:10.107Z,102020.28
2023-05-13T20:27:36.878Z,102030.31
2023-05-13T20:30:04.667Z,102027.22
2023-05-13T20:32:31.716Z,102030.13
2023-05-13T20:35:00.862Z,102032.53
2023-05-13T20:37:30.995Z,102030.47
2023-05-13T20:39:57.824Z,102024.78
2023-05-13T20:42:25.754Z,102035.13
2023-05-13T20:44:55.024Z,102005.78
2023-05-13T20:47:24.570Z,102020.47
2023-05-13T20:49:51.681Z,102014.00
2023-05-13T20:52:18.658Z,102031.28
2023-05-13T20:54:45.506Z,101963.56
2023-05-13T20:57:15.144Z,102025.94
2023-05-13T20:59:44.256Z,102028.13
2023-05-13T21:02:11.477Z,102020.41
2023-05-13T21:04:40.666Z,102026.59
2023-05-13T21:07:07.749Z,102031.63
2023-05-13T21:09:36.916Z,102010.03
2023-05-13T21:12:06.059Z,102021.94
2023-05-13T21:14:33.567Z,102026.44
2023-05-13T21:17:03.603Z,101957.16
2023-05-13T21:19:36.427Z,102017.25
2023-05-13T21:22:05.363Z,102012.94
2023-05-13T21:24:32.282Z,102019.63
2023-05-13T21:26:59.110Z,102020.81
2023-05-13T21:29:30.453Z,102016.34
2023-05-13T21:31:57.459Z,102020.94
2023-05-13T21:34:24.490Z,102016.81
2023-05-13T21:36:51.968Z,102029.91
2023-05-13T21:39:18.962Z,102018.09
2023-05-13T21:41:45.660Z,102027.44
2023-05-13T21:44:12.639Z,102018.59
2023-05-13T21:46:39.370Z,102030.13
2023-05-13T21:49:06.183Z,102020.25
2023-05-13T21:51:33.057Z,102028.22
2023-05-13T21:54:02.798Z,102022.66
2023-05-13T21:56:29.619Z,102021.22
2023-05-13T21:58:58.634Z,102027.44
2023-05-13T22:01:25.658Z,102025.31
2023-05-13T22:03:52.714Z,102028.41
2023-05-13T22:06:19.652Z,102017.34
2023-05-13T22:08:46.594Z,102010.72
2023-05-13T22:11:13.355Z,102025.34
2023-05-13T22:13:40.149Z,102027.56
2023-05-13T22:16:10.437Z,102029.78
2023-05-13T22:18:37.467Z,102006.28
2023-05-13T22:21:07.855Z,102008.88
2023-05-13T22:23:34.566Z,101997.09
2023-05-13T22:26:03.984Z,102013.16
2023-05-13T22:28:32.861Z,102024.00
2023-05-13T22:31:02.024Z,102017.06
2023-05-13T22:33:28.915Z,102010.34
2023-05-13T22:35:55.717Z,102005.78
2023-05-13T22:38:22.488Z,102002.66
2023-05-13T22:40:51.424Z,102013.19
2023-05-13T22:43:18.292Z,102009.00
2023-05-13T22:45:45.106Z,102008.31
2023-05-13T22:48:12.154Z,101997.00
2023-05-13T22:50:41.565Z,102003.59
2023-05-13T22:53:10.615Z,102002.34
2023-05-13T22:55:42.999Z,101974.69
2023-05-13T22:58:09.815Z,102001.16
2023-05-13T23:00:36.468Z,101990.38
2023-05-13T23:03:05.853Z,101949.00
2023-05-13T23:05:40.599Z,101995.41
2023-05-13T23:08:07.448Z,101999.22
2023-05-13T23:10:34.248Z,101996.47
2023-05-13T23:13:03.874Z,101983.47
2023-05-13T23:15:30.551Z,101985.34
2023-05-13T23:17:59.622Z,101987.09
2023-05-13T23:20:26.450Z,101985.91
2023-05-13T23:22:54.458Z,101986.22
2023-05-13T23:25:21.462Z,101993.59
2023-05-13T23:27:48.938Z,101984.81
2023-05-13T23:30:18.741Z,101980.50
2023-05-13T23:32:48.295Z,101985.59
2023-05-13T23:35:17.808Z,101977.38
2023-05-13T23:37:44.683Z,101972.53
2023-05-13T23:40:12.704Z,101971.25
2023-05-13T23:42:39.633Z,101981.22
2023-05-13T23:45:07.032Z,101964.41
2023-05-13T23:47:33.816Z,101976.66
2023-05-13T23:50:03.373Z,101971.06
2023-05-13T23:52:30.143Z,101963.59
2023-05-13T23:54:56.896Z,101948.19
2023-05-13T23:57:23.584Z,101974.72
2023-05-13T23:59:51.351Z,101970.88
